Time;durP1;ratioP1;P1;durP2;ratioP2;P2;SDS_P1;SDS_P2;PMS_P1;PMS_P2;Temp;Humidity;BMP_temperature;BMP_pressure;BME280_temperature;BME280_humidity;BME280_pressure;Samples;Min_cycle;Max_cycle;Signal;HPM_P1;HPM_P2
2022/11/01 00:02:08;;;;;;;11.40;5.22;;;;;;;-0.44;100.00;100029.66;1592506;88;21461;-78
2022/11/01 00:04:35;;;;;;;13.40;5.55;;;;;;;-0.47;100.00;100031.46;1578762;88;21136;-79
2022/11/01 00:07:03;;;;;;;13.62;5.42;;;;;;;-0.50;100.00;100037.32;1599753;88;21185;-80
2022/11/01 00:09:29;;;;;;;12.60;5.05;;;;;;;-0.53;100.00;100043.17;1588619;89;20981;-81
2022/11/01 00:11:56;;;;;;;12.70;4.45;;;;;;;-0.58;100.00;100045.77;1587002;88;21535;-81
2022/11/01 00:14:22;;;;;;;12.80;5.28;;;;;;;-0.63;100.00;100038.90;1577047;88;21001;-81
2022/11/01 00:16:49;;;;;;;8.98;4.15;;;;;;;-0.64;100.00;100044.00;1611643;89;21105;-81
2022/11/01 00:19:16;;;;;;;9.85;4.10;;;;;;;-0.66;100.00;100040.18;1608499;87;21553;-80
2022/11/01 00:21:42;;;;;;;8.50;4.15;;;;;;;-0.69;100.00;100041.47;1608871;88;21041;-79
2022/11/01 00:24:09;;;;;;;15.63;4.78;;;;;;;-0.72;100.00;100041.10;1606703;89;21603;-78
2022/11/01 00:26:36;;;;;;;10.40;4.75;;;;;;;-0.80;100.00;100039.55;1604777;87;21453;-78
2022/11/01 00:29:03;;;;;;;13.50;5.08;;;;;;;-0.85;100.00;100035.38;1610099;88;20975;-78
2022/11/01 00:31:30;;;;;;;12.63;4.80;;;;;;;-0.90;100.00;100032.55;1604862;87;21133;-77
2022/11/01 00:33:57;;;;;;;12.63;4.90;;;;;;;-0.93;100.00;100036.22;1603210;88;20955;-78
2022/11/01 00:36:23;;;;;;;16.23;4.87;;;;;;;-1.00;100.00;100028.22;1604549;88;21506;-78
2022/11/01 00:38:51;;;;;;;11.90;5.08;;;;;;;-1.04;100.00;100032.42;1617491;88;20965;-78
2022/11/01 00:41:19;;;;;;;13.13;4.83;;;;;;;-1.06;100.00;100033.18;1619800;88;20927;-79
2022/11/01 00:43:46;;;;;;;13.15;5.33;;;;;;;-1.06;100.00;100034.52;1599331;89;21152;-78
2022/11/01 00:46:12;;;;;;;12.55;4.87;;;;;;;-1.08;100.00;100032.58;1595576;89;21077;-79
2022/11/01 00:48:40;;;;;;;12.30;5.33;;;;;;;-1.12;100.00;100033.56;1595559;89;20965;-78
2022/11/01 00:51:07;;;;;;;13.05;5.05;;;;;;;-1.16;100.00;100034.27;1595617;90;20978;-77
2022/11/01 00:53:36;;;;;;;13.20;5.42;;;;;;;-1.19;100.00;100031.51;1595728;90;21480;-78
2022/11/01 00:56:04;;;;;;;16.95;5.67;;;;;;;-1.23;100.00;100039.75;1595442;90;21127;-77
2022/11/01 00:58:31;;;;;;;12.23;5.33;;;;;;;-1.25;100.00;100035.63;1595117;90;20969;-78
2022/11/01 01:00:57;;;;;;;15.75;5.85;;;;;;;-1.30;100.00;100039.00;1595299;90;20973;-78
2022/11/01 01:03:24;;;;;;;11.93;5.10;;;;;;;-1.31;100.00;100041.92;1595369;90;21063;-79
2022/11/01 01:05:51;;;;;;;14.53;5.00;;;;;;;-1.31;100.00;100043.27;1595484;89;21635;-79
2022/11/01 01:08:20;;;;;;;11.63;5.45;;;;;;;-1.35;100.00;100038.34;1595205;90;20965;-78
2022/11/01 01:10:46;;;;;;;10.05;5.08;;;;;;;-1.37;100.00;100044.47;1595550;88;21462;-78
2022/11/01 01:13:14;;;;;;;13.68;5.50;;;;;;;-1.38;100.00;100044.70;1595852;90;21462;-79
2022/11/01 01:15:40;;;;;;;13.40;5.25;;;;;;;-1.37;100.00;100049.03;1595612;89;21013;-79
2022/11/01 01:18:07;;;;;;;14.58;5.62;;;;;;;-1.37;100.00;100042.30;1594651;90;20957;-77
2022/11/01 01:20:34;;;;;;;12.47;5.47;;;;;;;-1.39;100.00;100047.91;1595862;90;21064;-77
2022/11/01 01:23:00;;;;;;;12.43;5.33;;;;;;;-1.41;100.00;100048.66;1595876;89;20933;-77
2022/11/01 01:25:27;;;;;;;16.52;5.50;;;;;;;-1.42;100.00;100052.93;1595945;90;20909;-78
2022/11/01 01:27:55;;;;;;;14.78;5.85;;;;;;;-1.43;100.00;100051.28;1596177;89;20974;-78
2022/11/01 01:30:21;;;;;;;16.70;6.42;;;;;;;-1.48;100.00;100053.30;1595953;89;21008;-78
2022/11/01 01:32:49;;;;;;;11.65;6.03;;;;;;;-1.50;100.00;100047.84;1595934;90;20972;-78
2022/11/01 01:35:16;;;;;;;10.68;5.67;;;;;;;-1.52;100.00;100045.38;1596137;90;21476;-78
2022/11/01 01:37:44;;;;;;;14.10;6.12;;;;;;;-1.50;100.00;100040.59;1595927;90;20981;-79
2022/11/01 01:40:11;;;;;;;13.88;6.50;;;;;;;-1.46;100.00;100035.05;1596251;90;21560;-79
2022/11/01 01:42:40;;;;;;;13.78;5.35;;;;;;;-1.44;100.00;100029.44;1596006;90;21582;-79
2022/11/01 01:45:39;;;;;;;11.68;5.33;;;;;;;-1.43;100.00;100038.64;1595933;90;21489;-79
2022/11/01 01:48:20;;;;;;;14.93;5.42;;;;;;;-1.44;100.00;100034.83;1614475;87;20951;-79
2022/11/01 01:51:01;;;;;;;11.97;5.62;;;;;;;-1.50;100.00;100027.13;1598359;89;20957;-77
2022/11/01 01:53:33;;;;;;;12.90;5.17;;;;;;;-1.51;100.00;100034.91;1595765;89;21634;-78
2022/11/01 01:56:19;;;;;;;13.32;4.65;;;;;;;-1.54;100.00;100032.66;1596071;90;21603;-79
2022/11/01 01:58:57;;;;;;;10.65;5.28;;;;;;;-1.54;100.00;100038.05;1595959;90;21579;-79
2022/11/01 02:01:25;;;;;;;10.68;4.03;;;;;;;-1.55;100.00;100043.66;1585549;89;20969;-78
2022/11/01 02:03:51;;;;;;;12.43;4.78;;;;;;;-1.57;100.00;100041.19;1596127;90;21595;-79
2022/11/01 02:06:21;;;;;;;20.27;5.67;;;;;;;-1.59;100.00;100045.97;1595989;90;20941;-78
2022/11/01 02:08:55;;;;;;;21.10;5.55;;;;;;;-1.64;100.00;100039.09;1596020;90;21044;-77
2022/11/01 02:11:23;;;;;;;18.90;5.35;;;;;;;-1.65;100.00;100042.83;1576760;89;21777;-78
2022/11/01 02:13:50;;;;;;;9.73;4.45;;;;;;;-1.66;100.00;100045.22;1595851;90;21497;-79
2022/11/01 02:17:00;;;;;;;11.90;4.97;;;;;;;-1.63;100.00;100046.64;1595931;90;21575;-79
2022/11/01 02:20:03;;;;;;;13.58;4.85;;;;;;;-1.60;100.00;100045.67;1595708;89;21603;-79
2022/11/01 02:22:52;;;;;;;11.65;4.85;;;;;;;-1.56;100.00;100046.05;1596078;90;21008;-79
2022/11/01 02:25:42;;;;;;;9.88;4.45;;;;;;;-1.55;100.00;100045.82;1595974;90;22025;-80
2022/11/01 02:28:37;;;;;;;12.50;4.42;;;;;;;-1.51;100.00;100044.33;1595823;90;21012;-79
2022/11/01 02:31:33;;;;;;;9.68;3.95;;;;;;;-1.49;100.00;100050.31;1595634;89;21492;-79
2022/11/01 02:34:47;;;;;;;14.15;4.78;;;;;;;-1.49;100.00;100051.66;1595947;90;21017;-77
2022/11/01 02:37:26;;;;;;;10.38;4.12;;;;;;;-1.47;100.00;100048.22;1535093;92;20960;-77
2022/11/01 02:39:58;;;;;;;9.28;4.25;;;;;;;-1.46;100.00;100055.77;1579195;90;21829;-77
2022/11/01 02:42:30;;;;;;;10.65;3.58;;;;;;;-1.48;100.00;100057.34;1562486;90;20963;-77
2022/11/01 02:45:01;;;;;;;8.83;4.05;;;;;;;-1.49;100.00;100062.95;1593404;90;26491;-79
2022/11/01 02:47:29;;;;;;;10.80;4.28;;;;;;;-1.50;100.00;100065.34;1595699;90;20990;-79
2022/11/01 02:50:00;;;;;;;10.70;3.80;;;;;;;-1.50;100.00;100065.34;1595805;90;21493;-77
2022/11/01 02:52:29;;;;;;;10.40;4.42;;;;;;;-1.50;100.00;100072.08;1595795;90;22222;-78
2022/11/01 02:54:59;;;;;;;13.30;4.92;;;;;;;-1.47;100.00;100070.28;1595857;90;21536;-76
2022/11/01 02:57:35;;;;;;;11.18;3.92;;;;;;;-1.45;100.00;100070.88;1595831;90;20885;-77
2022/11/01 03:00:27;;;;;;;15.43;5.05;;;;;;;-1.44;100.00;100065.80;1595832;90;20956;-79
2022/11/01 03:03:18;;;;;;;13.13;4.45;;;;;;;-1.43;100.00;100073.65;1595561;89;20886;-80
2022/11/01 03:06:02;;;;;;;10.78;4.37;;;;;;;-1.38;100.00;100074.33;1595475;90;21327;-80
2022/11/01 03:08:37;;;;;;;9.43;3.75;;;;;;;-1.31;100.00;100071.55;1595565;90;20914;-76
2022/11/01 03:11:08;;;;;;;8.00;3.90;;;;;;;-1.29;100.00;100072.16;1595883;88;20975;-75
2022/11/01 03:13:56;;;;;;;10.35;4.20;;;;;;;-1.28;100.00;100071.11;1593517;89;21541;-75
2022/11/01 03:16:51;;;;;;;9.25;3.98;;;;;;;-1.30;100.00;100069.16;1594474;89;21013;-77
2022/11/01 03:19:54;;;;;;;9.68;4.25;;;;;;;-1.26;100.00;100070.36;1595086;90;21148;-80
2022/11/01 03:22:36;;;;;;;9.00;4.00;;;;;;;-1.29;100.00;100067.59;1595762;90;20973;-80
2022/11/01 03:25:39;;;;;;;8.97;4.17;;;;;;;-1.34;100.00;100073.65;1595987;89;21530;-78
2022/11/01 03:28:12;;;;;;;19.25;4.67;;;;;;;-1.36;100.00;100073.58;1596040;90;21488;-75
2022/11/01 03:30:43;;;;;;;11.28;5.17;;;;;;;-1.42;100.00;100069.91;1596258;90;20929;-77
2022/11/01 03:33:12;;;;;;;18.42;4.40;;;;;;;-1.37;100.00;100070.58;1595905;90;21170;-78
2022/11/01 03:35:41;;;;;;;8.38;4.28;;;;;;;-1.34;100.00;100071.48;1576735;90;21018;-77
2022/11/01 03:38:12;;;;;;;12.25;4.47;;;;;;;-1.37;100.00;100071.93;1595871;89;21518;-78
2022/11/01 03:40:42;;;;;;;11.48;4.15;;;;;;;-1.40;100.00;100070.51;1596014;90;21587;-79
2022/11/01 03:43:10;;;;;;;12.20;4.97;;;;;;;-1.42;100.00;100072.60;1595693;89;20894;-79
2022/11/01 03:45:39;;;;;;;11.65;4.83;;;;;;;-1.41;100.00;100070.73;1595748;89;21040;-78
2022/11/01 03:48:06;;;;;;;12.15;4.60;;;;;;;-1.42;100.00;100072.60;1595789;90;21028;-77
2022/11/01 03:50:34;;;;;;;20.97;5.87;;;;;;;-1.44;100.00;100071.18;1595892;90;20965;-78
2022/11/01 03:53:01;;;;;;;11.00;4.97;;;;;;;-1.43;100.00;100061.53;1595534;89;21037;-77
2022/11/01 03:55:28;;;;;;;18.48;6.10;;;;;;;-1.43;100.00;100060.70;1595322;90;20966;-79
2022/11/01 03:58:01;;;;;;;12.90;4.85;;;;;;;-1.46;100.00;100061.16;1595743;90;21457;-78
2022/11/01 04:00:30;;;;;;;13.48;4.87;;;;;;;-1.48;100.00;100061.91;1595957;89;20933;-80
2022/11/01 04:02:58;;;;;;;11.22;5.10;;;;;;;-1.51;100.00;100065.05;1594896;89;21052;-76
2022/11/01 04:05:28;;;;;;;12.25;4.92;;;;;;;-1.53;100.00;100062.58;1595259;90;20977;-81
2022/11/01 04:07:58;;;;;;;16.55;4.97;;;;;;;-1.54;100.00;100064.97;1595885;89;21457;-77
2022/11/01 04:10:28;;;;;;;14.58;5.35;;;;;;;-1.56;100.00;100067.06;1595690;88;21561;-83
2022/11/01 04:12:57;;;;;;;15.48;5.58;;;;;;;-1.57;100.00;100066.77;1595869;89;21095;-83
2022/11/01 04:21:17;;;;;;;12.63;5.00;;;;;;;-1.63;100.00;100060.92;1595794;90;21502;-82
2022/11/01 04:23:44;;;;;;;12.20;5.00;;;;;;;-1.66;100.00;100064.06;1594932;89;21304;-79
2022/11/01 04:26:14;;;;;;;11.40;5.80;;;;;;;-1.69;100.00;100063.16;1595596;90;21035;-81
2022/11/01 04:29:00;;;;;;;10.03;4.75;;;;;;;-1.71;100.00;100062.04;1595388;89;21551;-82
2022/11/01 04:31:33;;;;;;;14.90;4.80;;;;;;;-1.74;100.00;100069.77;1595146;90;20925;-79
2022/11/01 04:34:09;;;;;;;10.00;4.83;;;;;;;-1.76;100.00;100074.55;1594917;89;22152;-78
2022/11/01 04:36:42;;;;;;;13.25;5.47;;;;;;;-1.77;100.00;100074.25;1595172;90;21189;-81
2022/11/01 04:39:17;;;;;;;17.95;5.50;;;;;;;-1.77;100.00;100071.56;1571694;89;21547;-78
2022/11/01 04:41:46;;;;;;;15.80;5.25;;;;;;;-1.77;100.00;100076.94;1596504;89;20938;-79
2022/11/01 04:44:26;;;;;;;11.88;5.65;;;;;;;-1.79;100.00;100078.51;1595809;89;21017;-80
2022/11/01 04:46:53;;;;;;;20.00;6.53;;;;;;;-1.80;100.00;100082.77;1583118;89;21084;-77
2022/11/01 04:49:24;;;;;;;27.40;6.78;;;;;;;-1.81;100.00;100079.78;1594292;90;21165;-76
2022/11/01 04:51:53;;;;;;;20.80;6.80;;;;;;;-1.80;100.00;100083.59;1593831;90;21496;-81
2022/11/01 04:54:19;;;;;;;23.10;6.92;;;;;;;-1.81;100.00;100091.89;1595798;89;20980;-91
2022/11/01 04:56:48;;;;;;;20.95;6.85;;;;;;;-1.81;100.00;100089.20;1595810;90;21081;-84
2022/11/01 04:59:17;;;;;;;21.15;7.42;;;;;;;-1.82;100.00;100089.72;1615359;88;21066;-76
2022/11/01 05:01:50;;;;;;;17.23;6.92;;;;;;;-1.79;100.00;100091.97;1617950;88;21514;-79
2022/11/01 05:04:19;;;;;;;19.45;6.97;;;;;;;-1.77;100.00;100095.78;1582655;87;21032;-76
2022/11/01 05:06:51;;;;;;;19.05;7.58;;;;;;;-1.77;100.00;100091.75;1606878;88;20970;-76
2022/11/01 05:09:18;;;;;;;22.25;7.42;;;;;;;-1.76;100.00;100106.85;1604171;88;21609;-75
2022/11/01 05:11:47;;;;;;;18.23;7.90;;;;;;;-1.79;100.00;100101.39;1608085;87;21022;-78
2022/11/01 05:14:18;;;;;;;16.07;7.10;;;;;;;-1.77;100.00;100097.95;1613758;87;21536;-77
2022/11/01 05:16:47;;;;;;;23.55;8.03;;;;;;;-1.74;100.00;100095.34;1623563;87;20984;-77
2022/11/01 05:19:19;;;;;;;18.30;7.28;;;;;;;-1.71;100.00;100090.83;1615104;87;21100;-78
2022/11/01 05:21:46;;;;;;;19.15;6.58;;;;;;;-1.68;100.00;100085.00;1614482;88;20978;-77
2022/11/01 05:24:15;;;;;;;19.40;6.97;;;;;;;-1.64;100.00;100092.11;1580503;88;21133;-78
2022/11/01 05:26:49;;;;;;;21.95;7.95;;;;;;;-1.59;100.00;100090.92;1591664;89;22414;-77
2022/11/01 05:29:21;;;;;;;20.72;8.03;;;;;;;-1.53;100.00;100088.16;1558492;90;21512;-77
2022/11/01 05:31:54;;;;;;;15.85;7.35;;;;;;;-1.47;100.00;100081.88;1576151;88;21014;-81
2022/11/01 05:34:27;;;;;;;27.65;12.05;;;;;;;-1.39;100.00;100089.66;1562421;89;21095;-81
2022/11/01 05:36:56;;;;;;;32.38;12.25;;;;;;;-1.34;100.00;100085.77;1571528;89;20940;-78
2022/11/01 05:39:32;;;;;;;33.15;13.03;;;;;;;-1.27;100.00;100088.39;1587825;88;21219;-78
2022/11/01 05:42:03;;;;;;;36.20;13.68;;;;;;;-1.18;100.00;100086.22;1594736;90;21069;-79
2022/11/01 05:44:35;;;;;;;35.03;12.65;;;;;;;-1.06;100.00;100086.55;1577173;88;21009;-80
2022/11/01 05:47:10;;;;;;;35.35;13.35;;;;;;;-0.95;100.00;100090.88;1604313;88;21005;-80
2022/11/01 05:49:39;;;;;;;42.35;16.07;;;;;;;-0.87;100.00;100085.99;1604142;89;21512;-80
2022/11/01 05:52:15;;;;;;;48.73;17.27;;;;;;;-0.80;100.00;100084.03;1590339;89;21887;-80
2022/11/01 05:54:44;;;;;;;52.13;22.05;;;;;;;-0.71;100.00;100084.53;1595782;88;21021;-79
2022/11/01 05:57:14;;;;;;;50.35;20.72;;;;;;;-0.60;100.00;100086.98;1599828;88;20946;-79
2022/11/01 05:59:46;;;;;;;46.92;20.57;;;;;;;-0.44;100.00;100094.39;1576746;88;21088;-79
2022/11/01 06:02:18;;;;;;;41.08;17.98;;;;;;;-0.29;100.00;100089.38;1599002;88;21159;-80
2022/11/01 06:04:48;;;;;;;32.35;15.05;;;;;;;-0.12;100.00;100087.66;1592927;88;21664;-79
2022/11/01 06:07:26;;;;;;;25.75;12.53;;;;;;;0.08;100.00;100087.83;1593527;88;20951;-80
2022/11/01 06:10:00;;;;;;;26.05;10.65;;;;;;;0.25;100.00;100092.30;1596110;89;20929;-79
2022/11/01 06:12:30;;;;;;;22.07;8.35;;;;;;;0.43;100.00;100087.83;1576663;89;20973;-79
2022/11/01 06:15:04;;;;;;;16.50;7.25;;;;;;;0.59;100.00;100083.84;1595966;90;21484;-79
2022/11/01 06:17:35;;;;;;;19.12;8.13;;;;;;;0.94;100.00;100096.47;1576381;90;20966;-80
2022/11/01 06:20:03;;;;;;;21.65;8.63;;;;;;;1.59;100.00;100096.08;1595819;90;20989;-79
2022/11/01 06:22:36;;;;;;;21.62;8.20;;;;;;;1.95;100.00;100095.59;1575006;90;21000;-79
2022/11/01 06:25:08;;;;;;;21.65;8.05;;;;;;;2.04;100.00;100089.77;1595654;89;21002;-79
2022/11/01 06:31:28;;;;;;;14.75;5.83;;;;;;;2.24;100.00;100093.63;1595902;90;21055;-81
2022/11/01 06:34:22;;;;;;;15.48;5.97;;;;;;;2.93;100.00;100097.24;1595837;90;20973;-81
2022/11/01 06:37:02;;;;;;;14.23;5.45;;;;;;;3.54;100.00;100082.45;1595950;90;21619;-80
2022/11/01 06:39:32;;;;;;;11.85;5.47;;;;;;;4.07;97.63;100081.27;1595858;90;20977;-80
2022/11/01 06:41:58;;;;;;;13.72;5.97;;;;;;;4.53;95.31;100085.95;1596145;90;20974;-80
2022/11/01 06:44:29;;;;;;;16.55;5.92;;;;;;;4.98;92.16;100079.08;1595789;89;21834;-80
2022/11/01 06:47:03;;;;;;;9.83;4.92;;;;;;;5.27;89.03;100083.52;1576620;90;20925;-81
2022/11/01 06:49:36;;;;;;;15.90;5.92;;;;;;;5.54;86.96;100080.59;1596219;90;21021;-78
2022/11/01 06:52:07;;;;;;;18.07;7.73;;;;;;;5.85;85.36;100087.69;1596100;90;21025;-78
2022/11/01 06:54:37;;;;;;;16.42;6.75;;;;;;;6.08;81.96;100082.28;1595944;90;21181;-78
2022/11/01 06:57:09;;;;;;;15.70;6.43;;;;;;;6.21;82.04;100088.55;1576644;90;20889;-79
2022/11/01 06:59:40;;;;;;;10.03;5.70;;;;;;;6.48;81.68;100079.22;1595887;90;21340;-79
2022/11/01 07:02:12;;;;;;;9.28;4.97;;;;;;;6.76;78.91;100084.62;1596221;89;20922;-79
2022/11/01 07:04:43;;;;;;;10.25;5.35;;;;;;;6.94;78.44;100075.80;1576598;90;20976;-79
2022/11/01 07:07:20;;;;;;;11.20;5.72;;;;;;;7.22;78.54;100077.86;1571093;90;21009;-79
2022/11/01 07:09:53;;;;;;;26.15;8.93;;;;;;;7.47;76.64;100088.39;1576607;90;20925;-79
2022/11/01 07:12:23;;;;;;;12.47;5.47;;;;;;;7.62;75.25;100073.24;1595780;88;20941;-80
2022/11/01 07:14:55;;;;;;;11.35;5.40;;;;;;;7.79;75.31;100072.86;1595909;89;21005;-79
2022/11/01 07:17:27;;;;;;;11.38;5.12;;;;;;;8.09;72.52;100071.78;1573620;90;38767;-79
2022/11/01 07:20:02;;;;;;;9.25;4.67;;;;;;;8.19;72.02;100068.95;1595946;90;20986;-79
2022/11/01 07:22:42;;;;;;;13.05;5.10;;;;;;;8.41;72.01;100074.80;1595887;90;21199;-79
2022/11/01 07:25:10;;;;;;;8.85;4.42;;;;;;;8.70;70.30;100070.64;1576787;90;21600;-79
2022/11/01 07:27:39;;;;;;;9.10;4.80;;;;;;;8.88;69.30;100064.97;1595858;88;20978;-79
2022/11/01 07:30:15;;;;;;;7.85;3.52;;;;;;;9.04;68.99;100072.45;1579388;90;21036;-78
2022/11/01 07:32:58;;;;;;;8.83;4.22;;;;;;;9.24;67.81;100068.88;1566784;90;20929;-79
2022/11/01 07:35:38;;;;;;;11.68;3.80;;;;;;;9.50;68.34;100067.16;1577592;89;21183;-78
2022/11/01 07:38:19;;;;;;;;;;;;;;;9.81;65.30;100064.23;1598222;90;20933;-80
2022/11/01 07:40:55;;;;;;;8.18;3.37;;;;;;;9.92;65.19;100068.41;1571284;90;20463;-79
2022/11/01 07:46:24;;;;;;;7.55;3.60;;;;;;;10.26;62.40;100053.63;1592949;88;20944;-80
2022/11/01 07:48:50;;;;;;;7.25;3.15;;;;;;;10.24;62.05;100054.48;1588077;88;21172;-80
2022/11/01 07:51:19;;;;;;;6.62;3.62;;;;;;;10.40;62.85;100054.44;1599960;88;21476;-80
2022/11/01 07:53:47;;;;;;;8.83;4.00;;;;;;;10.70;61.84;100058.56;1611891;87;21082;-80
2022/11/01 07:56:23;;;;;;;11.60;3.37;;;;;;;10.87;60.24;100060.70;1593048;88;20895;-80
2022/11/01 07:58:56;;;;;;;10.18;3.62;;;;;;;10.99;59.16;100056.05;1618082;88;21100;-82
2022/11/01 08:01:26;;;;;;;7.58;2.92;;;;;;;11.16;58.87;100047.44;1616448;88;21153;-80
2022/11/01 08:03:54;;;;;;;8.83;2.87;;;;;;;11.31;56.91;100053.73;1618952;87;20973;-81
2022/11/01 08:06:25;;;;;;;12.13;3.02;;;;;;;11.39;56.85;100053.81;1551976;89;21645;-81
2022/11/01 08:08:55;;;;;;;6.25;3.10;;;;;;;11.51;56.27;100053.28;1612808;88;21015;-78
2022/11/01 08:11:28;;;;;;;7.50;2.90;;;;;;;11.65;55.26;100049.09;1576698;88;21444;-81
2022/11/01 08:14:02;;;;;;;8.23;3.40;;;;;;;11.67;55.10;100045.47;1593329;88;20985;-80
2022/11/01 08:16:38;;;;;;;6.83;2.92;;;;;;;11.73;54.44;100040.09;1608208;88;21025;-79
2022/11/01 08:19:10;;;;;;;7.33;2.65;;;;;;;11.84;54.82;100035.45;1613679;88;21024;-81
2022/11/01 08:21:54;;;;;;;12.50;2.80;;;;;;;12.14;53.57;100041.30;1618506;88;21486;-81
2022/11/01 08:24:52;;;;;;;6.15;2.37;;;;;;;12.35;53.19;100034.14;1616253;87;21017;-80
2022/11/01 08:27:13;;;;;;;6.70;2.20;;;;;;;12.72;52.32;100040.29;1612727;87;21844;-80
2022/11/01 08:29:54;;;;;;;4.70;2.52;;;;;;;12.98;52.41;100039.83;1605535;87;20988;-79
2022/11/01 08:32:26;;;;;;;8.20;2.87;;;;;;;13.35;51.62;100039.02;1610538;88;21040;-79
2022/11/01 08:34:57;;;;;;;9.33;2.70;;;;;;;13.55;50.46;100036.45;1599723;88;20971;-80
2022/11/01 08:37:24;;;;;;;4.15;2.20;;;;;;;13.65;49.74;100036.70;1618857;87;20975;-80
2022/11/01 08:39:55;;;;;;;8.40;2.95;;;;;;;13.75;49.14;100032.24;1595275;89;21305;-80
2022/11/01 08:42:26;;;;;;;5.67;2.58;;;;;;;13.74;48.89;100036.14;1581969;88;21013;-81
2022/11/01 08:44:55;;;;;;;5.72;2.58;;;;;;;13.76;49.66;100028.92;1579385;88;21015;-79
2022/11/01 08:47:29;;;;;;;10.38;3.58;;;;;;;13.92;49.20;100030.58;1595971;88;21009;-78
2022/11/01 08:49:57;;;;;;;9.13;3.37;;;;;;;13.99;49.79;100030.91;1592386;88;21001;-80
2022/11/01 08:52:30;;;;;;;7.60;2.92;;;;;;;14.23;49.42;100027.05;1593742;88;21155;-84
2022/11/01 08:54:58;;;;;;;7.40;2.85;;;;;;;14.49;48.31;100026.41;1597800;88;20984;-79
2022/11/01 08:57:29;;;;;;;7.40;2.50;;;;;;;14.52;47.01;100024.38;1567476;89;21563;-80
2022/11/01 09:00:02;;;;;;;7.90;3.25;;;;;;;14.52;47.22;100024.38;1545085;91;21026;-82
2022/11/01 09:02:35;;;;;;;6.87;2.62;;;;;;;14.52;45.04;100022.99;1563648;89;21012;-81
2022/11/01 09:05:07;;;;;;;5.50;2.52;;;;;;;14.61;45.73;100021.58;1546138;90;21030;-82
2022/11/01 09:07:47;;;;;;;7.45;2.52;;;;;;;14.94;44.37;100021.77;1557110;90;21579;-82
2022/11/01 09:10:15;;;;;;;7.45;3.08;;;;;;;14.95;43.93;100020.63;1583277;90;21137;-82
2022/11/01 09:12:48;;;;;;;8.30;2.47;;;;;;;15.06;43.58;100017.69;1580094;89;21045;-81
2022/11/01 09:15:18;;;;;;;9.33;3.47;;;;;;;15.20;42.78;100021.59;1593460;89;21589;-81
2022/11/01 09:17:48;;;;;;;6.20;2.80;;;;;;;15.35;42.16;100013.28;1592920;89;21257;-81
2022/11/01 09:20:20;;;;;;;8.00;2.92;;;;;;;15.30;41.99;100012.09;1560194;89;21015;-81
2022/11/01 09:22:53;;;;;;;;;;;;;;;15.36;41.32;100014.90;1575763;89;21584;-82
2022/11/01 09:25:24;;;;;;;5.60;2.52;;;;;;;15.44;40.61;100014.84;1595251;89;20566;-79
2022/11/01 09:28:04;;;;;;;8.58;2.80;;;;;;;15.37;40.56;100005.45;1575316;89;21133;-80
2022/11/01 09:30:31;;;;;;;7.40;3.75;;;;;;;15.40;40.90;100002.02;1592909;88;21062;-74
2022/11/01 09:33:04;;;;;;;9.60;4.45;;;;;;;15.57;40.90;99999.73;1593039;89;21050;-77
2022/11/01 09:35:35;;;;;;;12.07;4.60;;;;;;;15.70;39.57;99997.23;1591564;89;21107;-75
2022/11/01 09:38:04;;;;;;;9.68;4.08;;;;;;;15.86;39.02;99992.69;1595314;89;21148;-78
2022/11/01 09:40:42;;;;;;;7.00;2.30;;;;;;;16.05;39.23;99989.41;1564466;90;21086;-74
2022/11/01 09:43:15;;;;;;;5.28;2.33;;;;;;;16.33;37.96;99991.77;1590767;89;21196;-77
2022/11/01 09:45:48;;;;;;;6.62;3.10;;;;;;;16.42;37.21;99986.94;1589401;89;21077;-74
2022/11/01 09:48:18;;;;;;;5.42;2.22;;;;;;;16.27;36.50;99987.59;1592707;89;21490;-78
2022/11/01 09:50:48;;;;;;;4.65;2.08;;;;;;;16.27;37.08;99988.17;1599200;89;21006;-78
2022/11/01 09:53:22;;;;;;;4.28;1.82;;;;;;;16.43;37.24;99988.56;1597201;88;21003;-75
2022/11/01 09:56:01;;;;;;;6.05;2.05;;;;;;;16.58;36.76;99978.77;1610256;87;21139;-77
2022/11/01 09:58:54;;;;;;;3.55;1.77;;;;;;;16.61;36.48;99980.03;1605115;88;21007;-76
2022/11/01 10:01:45;;;;;;;7.97;2.10;;;;;;;16.64;36.51;99972.41;1603771;88;21078;-79
2022/11/01 10:04:58;;;;;;;7.50;1.75;;;;;;;16.87;35.38;99971.37;1621219;87;21023;-76
2022/11/01 10:07:37;;;;;;;3.37;1.40;;;;;;;16.64;35.61;99971.88;1596819;89;21057;-77
2022/11/01 10:10:27;;;;;;;4.70;1.70;;;;;;;16.62;36.23;99963.06;1570737;89;21128;-79
2022/11/01 10:13:13;;;;;;;5.75;2.42;;;;;;;16.84;35.04;99963.98;1593206;89;21011;-78
2022/11/01 10:16:02;;;;;;;5.87;1.90;;;;;;;16.85;35.02;99959.25;1591735;89;21092;-76
2022/11/01 10:18:41;;;;;;;4.37;1.98;;;;;;;16.90;35.26;99957.63;1587814;89;21076;-74
2022/11/01 10:21:17;;;;;;;4.92;2.25;;;;;;;16.96;35.73;99949.88;1590099;89;21538;-76
2022/11/01 10:23:51;;;;;;;13.55;5.03;;;;;;;17.19;35.23;99944.65;1567465;89;21034;-73
2022/11/01 10:26:31;;;;;;;7.87;2.80;;;;;;;17.43;34.53;99938.43;1592349;89;20983;-72
2022/11/01 10:29:16;;;;;;;6.12;2.72;;;;;;;17.72;33.76;99933.15;1593705;89;21087;-75
2022/11/01 10:31:47;;;;;;;6.62;3.42;;;;;;;17.97;33.03;99925.47;1590644;89;21034;-73
2022/11/01 10:34:30;;;;;;;7.42;3.37;;;;;;;18.23;32.52;99922.19;1591965;89;21628;-73
2022/11/01 10:37:11;;;;;;;7.83;3.05;;;;;;;18.38;32.46;99918.61;1594695;89;21248;-75
2022/11/01 10:40:04;;;;;;;5.03;2.25;;;;;;;18.64;32.09;99921.42;1589196;89;21025;-73
2022/11/01 10:42:31;;;;;;;8.60;2.67;;;;;;;19.02;31.48;99923.52;1590266;89;21027;-72
2022/11/01 10:45:05;;;;;;;7.03;3.10;;;;;;;19.20;31.21;99923.30;1575356;89;20987;-71
2022/11/01 10:47:32;;;;;;;5.70;2.70;;;;;;;19.24;29.48;99924.77;1589998;87;21157;-72
2022/11/01 10:50:10;;;;;;;6.05;3.00;;;;;;;18.89;29.69;99921.44;1609445;87;21138;-73
2022/11/01 10:52:51;;;;;;;8.25;3.50;;;;;;;18.85;29.90;99916.95;1576499;90;21573;-73
2022/11/01 10:55:40;;;;;;;8.18;2.72;;;;;;;18.84;29.67;99918.13;1612015;87;21023;-72
2022/11/01 10:58:25;;;;;;;4.37;2.37;;;;;;;18.96;29.76;99914.64;1577372;89;21051;-74
2022/11/01 11:00:52;;;;;;;8.00;2.80;;;;;;;19.26;29.67;99912.69;1575507;89;21086;-73
2022/11/01 11:03:23;;;;;;;5.33;2.25;;;;;;;19.58;28.74;99915.59;1574874;89;21259;-74
2022/11/01 11:05:50;;;;;;;7.95;2.37;;;;;;;19.73;27.16;99909.09;1617097;88;21023;-73
2022/11/01 11:08:20;;;;;;;4.78;2.60;;;;;;;19.70;26.45;99898.69;1596317;88;21013;-73
2022/11/01 11:10:47;;;;;;;5.65;2.65;;;;;;;19.61;26.30;99900.92;1616117;87;21102;-73
2022/11/01 11:13:22;;;;;;;8.18;3.70;;;;;;;19.40;26.66;99905.44;1608812;88;21089;-74
2022/11/01 11:16:01;;;;;;;5.78;3.20;;;;;;;19.18;26.87;99907.55;1604248;88;21149;-74
2022/11/01 11:18:42;;;;;;;8.20;3.67;;;;;;;19.08;27.87;99901.16;1607909;88;21525;-74
2022/11/01 11:21:11;;;;;;;6.30;2.95;;;;;;;19.19;29.57;99904.18;1587071;89;21042;-74
2022/11/01 11:23:43;;;;;;;6.33;3.35;;;;;;;19.27;28.90;99905.36;1603114;89;21055;-74
2022/11/01 11:26:15;;;;;;;7.22;3.05;;;;;;;19.24;29.12;99905.28;1584070;88;21081;-72
2022/11/01 11:28:49;;;;;;;6.60;2.87;;;;;;;19.34;29.17;99900.53;1605583;87;21802;-73
2022/11/01 11:31:30;;;;;;;6.55;2.70;;;;;;;19.56;30.02;99899.83;1601294;88;21051;-73
2022/11/01 11:34:17;;;;;;;8.98;2.50;;;;;;;19.68;28.88;99901.04;1607814;87;21126;-78
2022/11/01 11:36:50;;;;;;;6.80;2.47;;;;;;;19.65;28.86;99905.14;1613555;88;20989;-75
2022/11/01 11:42:47;;;;;;;7.75;3.00;;;;;;;19.69;27.49;99901.84;1617079;87;21095;-75
2022/11/01 11:48:26;;;;;;;8.78;2.67;;;;;;;18.64;28.30;99906.13;1522204;91;21115;-74
2022/11/01 11:51:04;;;;;;;7.03;3.10;;;;;;;18.52;28.80;99902.03;1548277;88;21019;-75
2022/11/01 11:53:32;;;;;;;4.83;2.30;;;;;;;18.31;29.44;99903.14;1605247;88;21110;-76
2022/11/01 11:56:05;;;;;;;6.58;2.42;;;;;;;18.02;30.92;99902.18;1629521;87;21237;-75
2022/11/01 11:58:47;;;;;;;6.78;3.33;;;;;;;17.56;31.40;99899.53;1604758;88;21600;-74
2022/11/01 12:01:16;;;;;;;5.37;2.47;;;;;;;17.05;31.77;99900.64;1595157;90;21572;-72
2022/11/01 12:03:51;;;;;;;5.05;2.40;;;;;;;16.35;32.68;99900.81;1595218;90;20969;-71
2022/11/01 12:06:22;;;;;;;4.65;2.15;;;;;;;15.95;33.72;99897.08;1595392;90;21152;-71
2022/11/01 12:08:51;;;;;;;5.95;2.62;;;;;;;15.73;33.78;99895.52;1595433;90;21808;-70